Nearby METAR Reports

 

KCMH - Columbus, Ohio, USA
Distance from station: SW 5mi, 8km
Updated: Mon, 23-Apr-2018 12:51am EDT
Partly cloudy
Partly cloudy
 Wind from NNE
Wind: NNE 6 mph , 9 km/h
Temperature: 52°F , 11°C
Dew Point: 30°F , -1°C
Humidity: 44%
Barometer: 30.19 inHg , 1022.4 hPa
Clouds: Partly cloudy
Visibility: 10 miles , 16 km
Cloud details: Partly cloudy 25000 ft
2018/04/23 04:51 KCMH 230451Z 03005KT 10SM SCT250 11/M01 A3019 RMK AO2 SLP222 T01111011 402060072
KOSU - Columbus/St Univ, Ohio, USA
Distance from station: W 14mi, 23km
Updated: Mon, 23-Apr-2018 12:53am EDT
Clear
Clear
 Wind from NE
Wind: NE 8 mph , 13 km/h
Temperature: 48°F , 9°C
Wind Chill: 44°F , 7°C
Dew Point: 30°F , -1°C
Humidity: 50%
Barometer: 30.19 inHg , 1022.4 hPa
Clouds: Clear
Visibility: 10 miles , 16 km
2018/04/23 04:53 KOSU 230453Z AUTO 05007KT 10SM CLR 09/M01 A3019 RMK AO2 SLP225 T00941006 401940050
 
KLCK - Rickenbacker Ang, Ohio, USA
Distance from station: SSW 17mi, 27km
Updated: Mon, 23-Apr-2018 1:15am EDT
Clear
Clear
 Wind from NE
Wind: NE 8 mph , 13 km/h
Temperature: 48°F , 9°C
Wind Chill: 44°F , 7°C
Dew Point: 32°F , 0°C
Humidity: 54%
Barometer: 30.18 inHg , 1022 hPa
Clouds: Clear
Visibility: 10 miles , 16 km
2018/04/23 05:15 KLCK 230515Z AUTO 05007KT 10SM CLR 09/00 A3018 RMK AO2 T00891002
KVTA - Newark, Ohio, USA
Distance from station: E 19mi, 30km
Updated: Mon, 23-Apr-2018 12:54am EDT
Clear
Clear
 Wind from calm
Wind: Calm
Temperature: 50°F , 10°C
Dew Point: 32°F , 0°C
Humidity: 50%
Barometer: 30.20 inHg , 1022.7 hPa
Clouds: Clear
Visibility: 10 miles , 16 km
2018/04/23 04:54 KVTA 230454Z AUTO 00000KT 10SM CLR 10/00 A3020 RMK AO2 SLP225 T01000000 402000056
 
KTZR - Columbus/Bolton, Ohio, USA
Distance from station: WSW 20mi, 31km
Updated: Mon, 23-Apr-2018 1:15am EDT
Clear
Clear
 Wind from NE
Wind: NE 6 mph , 9 km/h
Temperature: 48°F , 9°C
Wind Chill: 45°F , 7°C
Dew Point: 34°F , 1°C
Humidity: 58%
Barometer: 30.19 inHg , 1022.4 hPa
Clouds: Clear
Visibility: 10 miles , 16 km
2018/04/23 05:15 KTZR 230515Z AUTO 05005KT 10SM CLR 09/01 A3019 RMK AO2 T00940010
KLHQ - Lancaster, Ohio, USA
Distance from station: SSE 22mi, 36km
Updated: Mon, 23-Apr-2018 12:53am EDT
Clear
Clear
 Wind from calm
Wind: Calm
Temperature: 52°F , 11°C
Dew Point: 32°F , 0°C
Humidity: 47%
Barometer: 30.19 inHg , 1022.4 hPa
Clouds: Clear
Visibility: 10 miles , 16 km
2018/04/23 04:53 KLHQ 230453Z AUTO 00000KT 10SM CLR 11/00 A3019 RMK AO2 SLP223 T01110000 401940056
 
KDLZ - Delaware, Ohio, USA
Distance from station: NW 23mi, 36km
Updated: Mon, 23-Apr-2018 1:16am EDT
Clear
Clear
 Wind from ENE
Wind: ENE 3 mph , 6 km/h
Temperature: 46°F , 8°C
Dew Point: 30°F , -1°C
Humidity: 53%
Barometer: 30.20 inHg , 1022.7 hPa
Clouds: Clear
Visibility: 10 miles , 16 km
2018/04/23 05:16 KDLZ 230516Z AUTO 06003KT 10SM CLR 08/M01 A3020 RMK AO2
K4I3 - Mt Vernon/Knox, Ohio, USA
Distance from station: NE 25mi, 40km
Updated: Mon, 23-Apr-2018 1:17am EDT
Clear
Clear
 Wind from NNE
Wind: NNE 9 mph , 15 km/h
Temperature: 50°F , 10°C
Wind Chill: 46°F , 8°C
Dew Point: 30°F , -1°C
Humidity: 47%
Barometer: 30.23 inHg , 1023.7 hPa
Clouds: Clear
Visibility: 10 miles , 16 km
2018/04/23 05:17 K4I3 230517Z AUTO 03008KT 10SM CLR 10/M01 A3023 RMK AO2
 
KMRT - Marysville, Ohio, USA
Distance from station: WNW 30mi, 49km
Updated: Mon, 23-Apr-2018 1:15am EDT
Clear
Clear
 Wind from NE
Wind: NE 5 mph , 7 km/h
Temperature: 46°F , 8°C
Wind Chill: 44°F , 7°C
Dew Point: 32°F , 0°C
Humidity: 57%
Barometer: 30.20 inHg , 1022.7 hPa
Clouds: Clear
Visibility: 10 miles , 16 km
2018/04/23 05:15 KMRT 230515Z AUTO 05004KT 10SM CLR 08/00 A3020 RMK AO2 T00751003
KMNN - Marion, Ohio, USA
Distance from station: NNW 41mi, 67km
Updated: Mon, 23-Apr-2018 12:53am EDT
Clear
Clear
 Wind from NE
Wind: NE 6 mph , 9 km/h
Temperature: 43°F , 6°C
Wind Chill: 39°F , 4°C
Dew Point: 27°F , -3°C
Humidity: 53%
Barometer: 30.23 inHg , 1023.7 hPa
Clouds: Clear
Visibility: 10 miles , 16 km
2018/04/23 04:53 KMNN 230453Z AUTO 04005KT 10SM CLR 06/M03 A3023 RMK AO2 SLP240 T00561028 401890022
 
KZZV - Zanesville, Ohio, USA
Distance from station: E 49mi, 79km
Updated: Mon, 23-Apr-2018 12:53am EDT
Clear
Clear
 Wind from NE
Wind: NE 3 mph , 6 km/h
Temperature: 55°F , 13°C
Dew Point: 28°F , -2°C
Humidity: 36%
Barometer: 30.20 inHg , 1022.7 hPa
Clouds: Clear
Visibility: 10 miles , 16 km
2018/04/23 04:53 KZZV 230453Z AUTO 05003KT 10SM CLR 13/M02 A3020 RMK AO2 SLP226 T01331017 402060050